Time;durP1;ratioP1;P1;durP2;ratioP2;P2;SDS_P1;SDS_P2;PMS_P1;PMS_P2;Temp;Humidity;BMP_temperature;BMP_pressure;BME280_temperature;BME280_humidity;BME280_pressure;Samples;Min_cycle;Max_cycle;Signal;HPM_P1;HPM_P2
2022/01/23 00:00:28;;;;;;;14.00;6.57;;;;;;;;;;5026821;28;20117;-61
2022/01/23 00:03:00;;;;;;;11.98;6.10;;;;;;;;;;5023414;28;20112;-61
2022/01/23 00:05:33;;;;;;;9.70;4.47;;;;;;;;;;5027782;28;20025;-61
2022/01/23 00:07:59;;;;;;;11.68;5.60;;;;;;;;;;5027683;28;20477;-61
2022/01/23 00:10:25;;;;;;;10.57;5.30;;;;;;;;;;5028922;28;20040;-60
2022/01/23 00:13:01;;;;;;;14.68;6.13;;;;;;;;;;5030924;28;20603;-60
2022/01/23 00:18:11;;;;;;;11.20;5.50;;;;;;;;;;5031047;28;20416;-60
2022/01/23 00:20:37;;;;;;;12.13;4.55;;;;;;;;;;5030879;28;20021;-60
2022/01/23 00:23:13;;;;;;;9.98;4.93;;;;;;;;;;5027325;28;20025;-61
2022/01/23 00:31:08;;;;;;;11.55;5.30;;;;;;;;;;5032504;28;20113;-60
2022/01/23 00:33:34;;;;;;;9.95;5.13;;;;;;;;;;5027043;28;20034;-61
2022/01/23 00:36:00;;;;;;;11.32;4.85;;;;;;;;;;5032053;28;20072;-61
2022/01/23 00:38:26;;;;;;;11.43;4.90;;;;;;;;;;5035232;28;20026;-61
2022/01/23 00:40:52;;;;;;;8.40;4.38;;;;;;;;;;5030826;28;20033;-60
2022/01/23 00:43:28;;;;;;;10.23;4.75;;;;;;;;;;5034178;28;20029;-61
2022/01/23 00:48:52;;;;;;;8.65;4.60;;;;;;;;;;5028601;28;20052;-60
2022/01/23 00:51:18;;;;;;;8.40;4.65;;;;;;;;;;5026344;28;20516;-60
2022/01/23 00:53:44;;;;;;;8.93;4.65;;;;;;;;;;5024605;28;20064;-61
2022/01/23 00:56:10;;;;;;;17.83;5.10;;;;;;;;;;5022007;28;20026;-61
2022/01/23 00:58:36;;;;;;;7.13;3.92;;;;;;;;;;5027252;28;20025;-60
2022/01/23 01:01:02;;;;;;;7.65;3.65;;;;;;;;;;5032033;28;20052;-60
2022/01/23 01:03:28;;;;;;;7.50;3.95;;;;;;;;;;5034365;28;20112;-61
2022/01/23 01:05:54;;;;;;;9.25;4.68;;;;;;;;;;5034215;28;20041;-61
2022/01/23 01:08:20;;;;;;;7.80;4.60;;;;;;;;;;5033883;28;20038;-61
2022/01/23 01:11:19;;;;;;;8.15;3.55;;;;;;;;;;5022725;28;20490;-61
2022/01/23 01:33:00;;;;;;;7.05;3.55;;;;;;;;;;5024453;28;20044;-61
2022/01/23 01:35:38;;;;;;;7.50;3.53;;;;;;;;;;5033222;28;20042;-61
2022/01/23 01:38:04;;;;;;;6.72;3.50;;;;;;;;;;5030900;28;20068;-61
2022/01/23 01:40:30;;;;;;;6.70;3.50;;;;;;;;;;5030737;28;20053;-61
2022/01/23 01:42:56;;;;;;;6.38;2.97;;;;;;;;;;5027912;28;20361;-61
2022/01/23 01:45:27;;;;;;;7.47;3.63;;;;;;;;;;5032868;28;20108;-61
2022/01/23 01:47:54;;;;;;;7.22;3.42;;;;;;;;;;5026670;28;20104;-61
2022/01/23 01:50:20;;;;;;;5.82;3.22;;;;;;;;;;5028185;28;20041;-61
2022/01/23 01:52:46;;;;;;;6.53;3.08;;;;;;;;;;5040912;28;20120;-61
2022/01/23 01:55:16;;;;;;;5.75;2.92;;;;;;;;;;5031861;28;20425;-61
2022/01/23 01:57:51;;;;;;;8.20;3.40;;;;;;;;;;5030886;28;20025;-61
2022/01/23 02:08:25;;;;;;;7.53;3.53;;;;;;;;;;5031906;28;20733;-61
2022/01/23 02:10:55;;;;;;;6.65;3.55;;;;;;;;;;5021471;28;20026;-61
2022/01/23 02:13:31;;;;;;;8.32;3.88;;;;;;;;;;5023781;28;20030;-61
2022/01/23 02:22:28;;;;;;;4.85;3.00;;;;;;;;;;5031286;28;20110;-61
2022/01/23 02:51:33;;;;;;;5.97;3.35;;;;;;;;;;5020148;28;20044;-61
2022/01/23 02:54:22;;;;;;;6.45;4.05;;;;;;;;;;5030509;28;20032;-61
2022/01/23 02:56:52;;;;;;;7.18;3.60;;;;;;;;;;5029930;28;20075;-61
2022/01/23 02:59:35;;;;;;;8.30;3.83;;;;;;;;;;5030841;28;20030;-61
2022/01/23 03:04:33;;;;;;;4.97;3.13;;;;;;;;;;5027130;28;20875;-61
2022/01/23 03:07:16;;;;;;;6.10;3.15;;;;;;;;;;5020822;28;20025;-61
2022/01/23 03:15:07;;;;;;;7.35;3.30;;;;;;;;;;5016097;28;20041;-61
2022/01/23 03:28:59;;;;;;;6.80;3.55;;;;;;;;;;5028166;28;20040;-61
2022/01/23 03:31:27;;;;;;;7.25;3.95;;;;;;;;;;5023380;28;20041;-61
2022/01/23 03:33:53;;;;;;;11.07;3.53;;;;;;;;;;5028366;28;20033;-61
2022/01/23 03:36:19;;;;;;;7.00;3.60;;;;;;;;;;5035335;28;20076;-61
2022/01/23 03:38:46;;;;;;;7.28;3.70;;;;;;;;;;5027273;28;20087;-61
2022/01/23 03:41:12;;;;;;;7.32;3.30;;;;;;;;;;5026433;28;20029;-61
2022/01/23 03:43:40;;;;;;;5.78;3.55;;;;;;;;;;5031901;28;20091;-61
2022/01/23 03:46:34;;;;;;;9.00;3.90;;;;;;;;;;5028586;28;20044;-61
2022/01/23 03:51:45;;;;;;;6.20;3.40;;;;;;;;;;5035445;28;20520;-60
2022/01/23 03:54:11;;;;;;;6.72;3.63;;;;;;;;;;5028931;28;20037;-61
2022/01/23 03:56:37;;;;;;;7.15;3.33;;;;;;;;;;5032752;28;20017;-61
2022/01/23 03:59:03;;;;;;;6.55;3.45;;;;;;;;;;5035816;28;20022;-61
2022/01/23 04:01:29;;;;;;;6.68;3.17;;;;;;;;;;5022568;28;20034;-61
2022/01/23 04:04:01;;;;;;;5.78;2.95;;;;;;;;;;5034340;28;20039;-60
2022/01/23 04:06:27;;;;;;;5.85;3.03;;;;;;;;;;5035545;28;20053;-61
2022/01/23 04:08:52;;;;;;;4.88;2.88;;;;;;;;;;5030149;28;20075;-61
2022/01/23 04:11:19;;;;;;;5.47;3.20;;;;;;;;;;5024133;28;20029;-61
2022/01/23 04:13:55;;;;;;;5.93;3.10;;;;;;;;;;5034602;28;20033;-61
2022/01/23 04:16:45;;;;;;;6.47;3.20;;;;;;;;;;5026288;28;20026;-61
2022/01/23 04:19:29;;;;;;;5.25;2.85;;;;;;;;;;5032089;28;20112;-61
2022/01/23 04:46:42;;;;;;;7.25;3.45;;;;;;;;;;5023247;28;20378;-61
2022/01/23 04:59:54;;;;;;;5.78;3.10;;;;;;;;;;5023662;28;20039;-61
2022/01/23 05:05:07;;;;;;;6.97;3.28;;;;;;;;;;5029826;28;20092;-61
2022/01/23 05:07:34;;;;;;;7.88;3.47;;;;;;;;;;5031009;28;20029;-61
2022/01/23 05:10:00;;;;;;;7.93;3.28;;;;;;;;;;5027176;28;20374;-61
2022/01/23 05:12:31;;;;;;;6.85;3.55;;;;;;;;;;5037451;28;20099;-61
2022/01/23 05:14:57;;;;;;;7.97;4.03;;;;;;;;;;5023190;28;20060;-61
2022/01/23 05:17:23;;;;;;;7.45;3.83;;;;;;;;;;5033562;28;20029;-61
2022/01/23 05:19:49;;;;;;;7.57;3.67;;;;;;;;;;5025675;28;20061;-61
2022/01/23 05:25:09;;;;;;;7.13;3.53;;;;;;;;;;5032461;28;20136;-61
2022/01/23 05:27:35;;;;;;;9.93;3.85;;;;;;;;;;5031958;28;20397;-61
2022/01/23 05:30:03;;;;;;;9.68;4.35;;;;;;;;;;5035794;28;20096;-61
2022/01/23 05:32:34;;;;;;;10.40;4.20;;;;;;;;;;5027454;28;20057;-61
2022/01/23 05:35:01;;;;;;;7.63;3.88;;;;;;;;;;5031001;28;20052;-61
2022/01/23 05:37:27;;;;;;;7.63;3.95;;;;;;;;;;5027555;28;20033;-61
2022/01/23 05:39:53;;;;;;;7.25;3.85;;;;;;;;;;5033051;28;20021;-61
2022/01/23 05:42:19;;;;;;;8.68;4.40;;;;;;;;;;5027226;28;20033;-61
2022/01/23 05:44:45;;;;;;;8.43;4.40;;;;;;;;;;5029169;28;20489;-61
2022/01/23 05:47:12;;;;;;;7.80;3.75;;;;;;;;;;5033054;28;20029;-61
2022/01/23 05:49:38;;;;;;;8.20;4.40;;;;;;;;;;5020912;28;20025;-61
2022/01/23 05:52:05;;;;;;;9.25;4.47;;;;;;;;;;5032902;28;20343;-61
2022/01/23 05:54:31;;;;;;;7.10;3.35;;;;;;;;;;5030345;28;20060;-61
2022/01/23 05:56:57;;;;;;;8.60;4.13;;;;;;;;;;5031092;28;20041;-61
2022/01/23 05:59:23;;;;;;;7.22;3.67;;;;;;;;;;5028264;28;20022;-61
2022/01/23 06:01:55;;;;;;;8.20;4.75;;;;;;;;;;5029164;28;20083;-61
2022/01/23 06:04:21;;;;;;;9.05;4.63;;;;;;;;;;5027437;28;20028;-61
2022/01/23 06:06:47;;;;;;;7.10;3.83;;;;;;;;;;5030754;28;20022;-61
2022/01/23 06:09:13;;;;;;;8.43;4.20;;;;;;;;;;5028416;28;20125;-61
2022/01/23 06:11:39;;;;;;;8.30;4.25;;;;;;;;;;5027442;28;20041;-61
2022/01/23 06:14:08;;;;;;;7.43;4.28;;;;;;;;;;5030566;28;20025;-61
2022/01/23 06:16:34;;;;;;;6.93;3.60;;;;;;;;;;5027263;28;20621;-61
2022/01/23 06:19:00;;;;;;;8.02;4.63;;;;;;;;;;5029244;28;20076;-61
2022/01/23 06:21:26;;;;;;;7.43;3.88;;;;;;;;;;5019232;28;20036;-61
2022/01/23 06:24:21;;;;;;;6.45;3.88;;;;;;;;;;5030524;28;20033;-61
2022/01/23 06:26:43;;;;;;;9.07;3.72;;;;;;;;;;5024445;28;20117;-61
2022/01/23 06:29:09;;;;;;;7.70;4.47;;;;;;;;;;5035334;28;20048;-61
2022/01/23 06:31:36;;;;;;;7.60;4.10;;;;;;;;;;5026458;28;20029;-61
2022/01/23 06:34:02;;;;;;;6.97;3.45;;;;;;;;;;5030908;28;20021;-61
2022/01/23 06:36:28;;;;;;;8.40;3.65;;;;;;;;;;5025223;28;20128;-61
2022/01/23 06:38:54;;;;;;;5.97;3.42;;;;;;;;;;5030318;28;20022;-61
2022/01/23 06:41:20;;;;;;;7.68;3.92;;;;;;;;;;5022366;28;20441;-61
2022/01/23 06:43:46;;;;;;;8.43;4.20;;;;;;;;;;5029512;28;20108;-61
2022/01/23 06:46:12;;;;;;;7.57;3.75;;;;;;;;;;5030721;28;20147;-61
2022/01/23 06:48:38;;;;;;;8.32;4.35;;;;;;;;;;5031942;28;20405;-61
2022/01/23 06:51:04;;;;;;;8.95;4.32;;;;;;;;;;5028004;28;20120;-61
2022/01/23 06:53:30;;;;;;;7.03;4.00;;;;;;;;;;5023698;28;20029;-61
2022/01/23 06:55:56;;;;;;;6.47;3.97;;;;;;;;;;5031574;28;20056;-61
2022/01/23 06:58:22;;;;;;;7.28;4.15;;;;;;;;;;5031512;28;20029;-61
2022/01/23 07:00:48;;;;;;;6.25;3.50;;;;;;;;;;5023004;28;20025;-61
2022/01/23 07:03:14;;;;;;;6.60;3.53;;;;;;;;;;5028542;28;20037;-61
2022/01/23 07:05:40;;;;;;;6.53;3.50;;;;;;;;;;5032010;28;20467;-61
2022/01/23 07:08:06;;;;;;;6.45;3.42;;;;;;;;;;5026849;28;20052;-61
2022/01/23 07:10:32;;;;;;;5.45;3.30;;;;;;;;;;5026936;28;20060;-61
2022/01/23 07:12:58;;;;;;;7.13;3.88;;;;;;;;;;5028020;28;20733;-61
2022/01/23 07:15:24;;;;;;;5.85;2.88;;;;;;;;;;5030406;28;20029;-62
2022/01/23 07:17:51;;;;;;;5.90;3.17;;;;;;;;;;5023955;28;20437;-61
2022/01/23 07:20:17;;;;;;;8.43;3.75;;;;;;;;;;5031947;28;20017;-62
2022/01/23 07:22:43;;;;;;;6.72;3.50;;;;;;;;;;5028330;28;20033;-61
2022/01/23 07:25:09;;;;;;;6.47;3.33;;;;;;;;;;5029210;28;20030;-61
2022/01/23 07:27:40;;;;;;;6.20;3.35;;;;;;;;;;5028995;28;20025;-61
2022/01/23 07:30:10;;;;;;;5.95;3.13;;;;;;;;;;5029910;28;20033;-61
2022/01/23 07:32:36;;;;;;;6.35;3.35;;;;;;;;;;5024288;28;20041;-61
2022/01/23 07:35:02;;;;;;;5.85;3.60;;;;;;;;;;5023436;28;20036;-61
2022/01/23 07:37:28;;;;;;;5.95;3.17;;;;;;;;;;5027548;28;20565;-61
2022/01/23 07:39:54;;;;;;;6.25;3.28;;;;;;;;;;5030738;28;20029;-61
2022/01/23 07:42:20;;;;;;;6.68;3.40;;;;;;;;;;5022055;28;20034;-62
2022/01/23 07:44:46;;;;;;;6.40;3.35;;;;;;;;;;5030594;28;20155;-62
2022/01/23 07:47:12;;;;;;;6.35;3.60;;;;;;;;;;5027277;28;20083;-61
2022/01/23 07:49:38;;;;;;;8.35;3.65;;;;;;;;;;5024677;28;20111;-61
2022/01/23 07:52:04;;;;;;;7.00;3.17;;;;;;;;;;5024069;28;20030;-61
2022/01/23 07:54:30;;;;;;;6.18;3.03;;;;;;;;;;5024764;28;20026;-61
2022/01/23 07:56:56;;;;;;;5.68;3.25;;;;;;;;;;5020306;28;20034;-62
2022/01/23 07:59:22;;;;;;;7.40;3.42;;;;;;;;;;5030413;28;20055;-61
2022/01/23 08:01:48;;;;;;;8.20;3.58;;;;;;;;;;5030898;28;20075;-62
2022/01/23 08:04:14;;;;;;;5.53;2.83;;;;;;;;;;5030671;28;20025;-61
2022/01/23 08:06:43;;;;;;;5.80;3.20;;;;;;;;;;5018823;28;20613;-61
2022/01/23 08:09:10;;;;;;;6.30;3.10;;;;;;;;;;5028819;28;20033;-61
2022/01/23 08:11:36;;;;;;;5.00;2.83;;;;;;;;;;5025331;28;20056;-61
2022/01/23 08:14:02;;;;;;;7.53;3.10;;;;;;;;;;5029824;28;20385;-61
2022/01/23 08:16:28;;;;;;;5.93;2.80;;;;;;;;;;5030319;28;20036;-61
2022/01/23 08:18:54;;;;;;;5.82;3.10;;;;;;;;;;5025766;28;20030;-61
2022/01/23 08:21:20;;;;;;;5.72;3.10;;;;;;;;;;5021712;28;20076;-61
2022/01/23 08:23:46;;;;;;;7.63;2.90;;;;;;;;;;5024969;28;20485;-61
2022/01/23 08:26:12;;;;;;;4.65;2.50;;;;;;;;;;5025088;28;20060;-61
2022/01/23 08:28:38;;;;;;;5.78;2.65;;;;;;;;;;5024654;28;20033;-61
2022/01/23 08:31:04;;;;;;;5.15;2.90;;;;;;;;;;5031014;28;20116;-61
2022/01/23 08:33:30;;;;;;;5.82;2.97;;;;;;;;;;5023239;28;20040;-61
2022/01/23 08:35:57;;;;;;;5.75;2.83;;;;;;;;;;5031441;28;20050;-61
2022/01/23 08:38:26;;;;;;;4.03;2.30;;;;;;;;;;5023204;28;20560;-61
2022/01/23 08:41:49;;;;;;;5.70;2.42;;;;;;;;;;5031638;28;20092;-61
2022/01/23 08:43:44;;;;;;;5.30;2.55;;;;;;;;;;5029660;28;20113;-61
2022/01/23 08:46:11;;;;;;;4.93;2.20;;;;;;;;;;5032246;28;20035;-61
2022/01/23 08:48:37;;;;;;;4.63;2.15;;;;;;;;;;5029344;28;20048;-61
2022/01/23 08:51:03;;;;;;;7.47;4.05;;;;;;;;;;5018124;28;20018;-61
2022/01/23 08:53:29;;;;;;;4.90;2.63;;;;;;;;;;5033649;28;20029;-61
2022/01/23 08:55:55;;;;;;;5.97;2.92;;;;;;;;;;5033408;28;20026;-61
2022/01/23 08:58:21;;;;;;;5.00;2.97;;;;;;;;;;5029123;28;20033;-61
2022/01/23 09:00:47;;;;;;;3.78;2.22;;;;;;;;;;5027273;28;20026;-61
2022/01/23 09:03:13;;;;;;;5.82;2.50;;;;;;;;;;5031012;28;20029;-61
2022/01/23 09:05:38;;;;;;;4.38;2.30;;;;;;;;;;5031772;28;20028;-61
2022/01/23 09:08:05;;;;;;;5.25;2.35;;;;;;;;;;5032747;28;20030;-61
2022/01/23 09:10:40;;;;;;;4.20;2.20;;;;;;;;;;5034134;28;20655;-61
2022/01/23 09:13:15;;;;;;;3.92;2.50;;;;;;;;;;5043049;28;20033;-61
2022/01/23 09:15:41;;;;;;;4.15;2.20;;;;;;;;;;5029527;28;20586;-61
2022/01/23 09:18:08;;;;;;;3.67;2.03;;;;;;;;;;5025219;28;20129;-61
2022/01/23 09:20:34;;;;;;;3.92;2.10;;;;;;;;;;5024040;28;20423;-61
2022/01/23 09:23:00;;;;;;;3.72;1.92;;;;;;;;;;5029734;28;20100;-61
2022/01/23 09:25:26;;;;;;;4.38;2.42;;;;;;;;;;5027851;28;20034;-61
2022/01/23 09:27:52;;;;;;;3.88;2.08;;;;;;;;;;5023658;28;20044;-61
2022/01/23 09:30:20;;;;;;;4.32;2.05;;;;;;;;;;5044830;28;20029;-61
2022/01/23 09:32:47;;;;;;;4.32;2.33;;;;;;;;;;5023105;28;20041;-61
2022/01/23 09:35:14;;;;;;;4.47;2.08;;;;;;;;;;5033655;28;20045;-61
2022/01/23 09:37:41;;;;;;;5.28;2.65;;;;;;;;;;5027251;28;20115;-61
2022/01/23 09:40:08;;;;;;;5.32;2.38;;;;;;;;;;5032741;28;20560;-61
2022/01/23 09:42:36;;;;;;;2.95;1.92;;;;;;;;;;5044899;28;20017;-61
2022/01/23 09:45:09;;;;;;;3.15;2.20;;;;;;;;;;5033252;28;20805;-61
2022/01/23 09:47:36;;;;;;;3.50;1.83;;;;;;;;;;5024998;28;20381;-61
2022/01/23 09:50:03;;;;;;;5.00;2.33;;;;;;;;;;5031586;28;20060;-61
2022/01/23 09:52:31;;;;;;;2.63;1.52;;;;;;;;;;5022124;28;20038;-61
2022/01/23 09:55:00;;;;;;;3.33;1.80;;;;;;;;;;5018794;28;20064;-61
2022/01/23 09:57:30;;;;;;;4.00;1.70;;;;;;;;;;5026240;28;20116;-61
2022/01/23 09:59:56;;;;;;;3.15;1.67;;;;;;;;;;5031269;28;20045;-61
2022/01/23 10:02:25;;;;;;;3.05;1.90;;;;;;;;;;5026084;28;20037;-61
2022/01/23 10:04:52;;;;;;;3.58;1.67;;;;;;;;;;5033155;28;20128;-61
2022/01/23 10:07:18;;;;;;;3.53;1.90;;;;;;;;;;5021463;28;20452;-61
2022/01/23 10:09:52;;;;;;;3.10;1.70;;;;;;;;;;5027745;28;20025;-61
2022/01/23 10:12:19;;;;;;;3.17;1.75;;;;;;;;;;5035366;28;20029;-61
2022/01/23 10:14:45;;;;;;;4.63;1.95;;;;;;;;;;5033023;28;20034;-61
2022/01/23 10:17:11;;;;;;;2.30;1.50;;;;;;;;;;5032488;28;20021;-61
2022/01/23 10:19:38;;;;;;;3.30;1.60;;;;;;;;;;5028420;28;20083;-61
2022/01/23 10:22:05;;;;;;;2.85;1.50;;;;;;;;;;5028208;28;20025;-61
2022/01/23 10:24:32;;;;;;;2.67;1.80;;;;;;;;;;5023736;28;20063;-61
2022/01/23 10:26:59;;;;;;;3.35;1.65;;;;;;;;;;5032450;28;20067;-61
2022/01/23 10:29:27;;;;;;;2.50;1.75;;;;;;;;;;5033425;28;20477;-61
2022/01/23 10:32:05;;;;;;;3.28;1.98;;;;;;;;;;5031825;28;20021;-61
2022/01/23 10:34:45;;;;;;;2.97;1.80;;;;;;;;;;5033080;28;20053;-60
2022/01/23 10:37:12;;;;;;;3.72;2.03;;;;;;;;;;5026255;28;20076;-61
2022/01/23 10:39:42;;;;;;;4.07;1.80;;;;;;;;;;5030148;28;20026;-61
2022/01/23 10:42:32;;;;;;;5.32;2.80;;;;;;;;;;5031863;28;20029;-61
2022/01/23 10:47:49;;;;;;;4.15;1.95;;;;;;;;;;5024924;28;20119;-61
2022/01/23 10:50:15;;;;;;;3.35;1.80;;;;;;;;;;5032562;28;20525;-61
2022/01/23 10:52:47;;;;;;;3.50;1.60;;;;;;;;;;5031259;28;20075;-61
2022/01/23 10:55:13;;;;;;;4.20;1.60;;;;;;;;;;5022539;28;20026;-61
2022/01/23 10:57:40;;;;;;;3.03;1.40;;;;;;;;;;5026376;28;20049;-61
2022/01/23 11:00:12;;;;;;;2.40;1.40;;;;;;;;;;5029655;28;20086;-61
2022/01/23 11:02:40;;;;;;;2.72;1.70;;;;;;;;;;5031789;28;20147;-61
2022/01/23 11:05:07;;;;;;;2.92;1.45;;;;;;;;;;5030217;28;20026;-61
2022/01/23 11:07:35;;;;;;;2.67;1.65;;;;;;;;;;5019582;28;20497;-61
2022/01/23 11:10:01;;;;;;;5.03;1.80;;;;;;;;;;5025769;28;20025;-61
2022/01/23 11:18:00;;;;;;;2.00;1.30;;;;;;;;;;5019042;28;20113;-61
2022/01/23 11:20:30;;;;;;;2.10;1.30;;;;;;;;;;5030284;28;20480;-61
2022/01/23 11:23:14;;;;;;;2.78;1.67;;;;;;;;;;5022873;28;20041;-61
2022/01/23 11:25:42;;;;;;;2.25;1.30;;;;;;;;;;5028411;28;20033;-61
2022/01/23 11:28:08;;;;;;;3.13;1.67;;;;;;;;;;5024115;28;20041;-61
2022/01/23 11:30:40;;;;;;;3.35;1.63;;;;;;;;;;5032357;28;20025;-61
2022/01/23 11:33:10;;;;;;;3.20;1.75;;;;;;;;;;5023734;28;20037;-61
2022/01/23 11:35:37;;;;;;;3.80;1.30;;;;;;;;;;5025951;28;20053;-61
2022/01/23 11:38:09;;;;;;;1.73;1.20;;;;;;;;;;5030752;28;20033;-61
2022/01/23 11:50:36;;;;;;;2.33;1.20;;;;;;;;;;5031235;28;20103;-61
2022/01/23 11:54:39;;;;;;;2.13;1.25;;;;;;;;;;5028653;28;20044;-61
2022/01/23 11:57:25;;;;;;;1.58;1.15;;;;;;;;;;5019018;28;20026;-61
2022/01/23 11:59:51;;;;;;;1.75;1.00;;;;;;;;;;5019859;28;20104;-61
2022/01/23 12:02:26;;;;;;;2.38;1.20;;;;;;;;;;5021950;28;20018;-61
2022/01/23 12:05:20;;;;;;;2.10;1.27;;;;;;;;;;5023760;28;20123;-61
2022/01/23 12:07:46;;;;;;;;;;;;;;;;;;5026705;28;20215;-61
2022/01/23 12:10:22;;;;;;;1.70;0.80;;;;;;;;;;5029682;28;19909;-61
2022/01/23 12:12:51;;;;;;;1.50;1.10;;;;;;;;;;5031237;28;20440;-61
2022/01/23 12:18:25;;;;;;;3.28;0.70;;;;;;;;;;5027984;28;20080;-61
2022/01/23 12:20:52;;;;;;;3.20;0.90;;;;;;;;;;5027311;28;20049;-61
2022/01/23 12:23:19;;;;;;;1.20;0.82;;;;;;;;;;5031977;28;20417;-61
2022/01/23 12:25:49;;;;;;;1.08;0.65;;;;;;;;;;5029401;28;20087;-61
2022/01/23 12:28:16;;;;;;;1.27;0.80;;;;;;;;;;5032612;28;20124;-61
2022/01/23 12:30:44;;;;;;;1.33;0.70;;;;;;;;;;5032055;28;20022;-61
2022/01/23 12:33:10;;;;;;;0.82;0.52;;;;;;;;;;5028964;28;20030;-60
2022/01/23 12:35:45;;;;;;;1.15;0.70;;;;;;;;;;5033256;28;20052;-61
2022/01/23 12:38:12;;;;;;;0.77;0.52;;;;;;;;;;5026690;28;20061;-61
2022/01/23 12:40:47;;;;;;;0.55;0.45;;;;;;;;;;5029292;28;20097;-61
2022/01/23 12:43:25;;;;;;;1.63;0.63;;;;;;;;;;5027235;28;20042;-61
2022/01/23 12:45:53;;;;;;;1.58;0.60;;;;;;;;;;5029744;28;20374;-61
2022/01/23 12:48:25;;;;;;;0.57;0.50;;;;;;;;;;5029045;28;20034;-61
2022/01/23 12:51:02;;;;;;;0.47;0.40;;;;;;;;;;5026655;28;20037;-61
2022/01/23 12:53:41;;;;;;;0.60;0.60;;;;;;;;;;5026738;28;20060;-59
2022/01/23 12:56:11;;;;;;;1.73;0.50;;;;;;;;;;5025498;28;20381;-61
2022/01/23 12:58:37;;;;;;;0.55;0.50;;;;;;;;;;5029076;28;20034;-61
2022/01/23 13:01:08;;;;;;;0.73;0.70;;;;;;;;;;5031320;28;20033;-61
2022/01/23 13:03:36;;;;;;;1.10;0.60;;;;;;;;;;5026224;28;20061;-61
2022/01/23 13:06:06;;;;;;;2.38;0.80;;;;;;;;;;5026348;28;20063;-61
2022/01/23 13:08:36;;;;;;;2.30;0.70;;;;;;;;;;5022930;28;20033;-59
2022/01/23 13:16:18;;;;;;;1.50;0.80;;;;;;;;;;5020433;28;20989;-61
2022/01/23 13:19:04;;;;;;;;;;;;;;;;;;5023461;28;20029;-61
2022/01/23 13:32:33;;;;;;;1.60;0.75;;;;;;;;;;5018690;28;20045;-60
2022/01/23 13:35:05;;;;;;;1.38;0.77;;;;;;;;;;5026650;28;20032;-61
2022/01/23 13:37:34;;;;;;;2.20;0.95;;;;;;;;;;5031488;28;20029;-61
2022/01/23 13:40:06;;;;;;;1.83;0.73;;;;;;;;;;5022478;28;20022;-61
2022/01/23 13:47:56;;;;;;;0.95;0.50;;;;;;;;;;5022837;28;20022;-61
2022/01/23 13:51:31;;;;;;;2.88;0.95;;;;;;;;;;5022595;28;20497;-61
2022/01/23 13:59:29;;;;;;;1.92;0.68;;;;;;;;;;5024923;28;20044;-61
2022/01/23 14:04:24;;;;;;;1.20;0.90;;;;;;;;;;5022341;28;20029;-60
2022/01/23 14:06:51;;;;;;;1.30;0.75;;;;;;;;;;5025917;28;20047;-61
2022/01/23 14:09:18;;;;;;;0.90;0.52;;;;;;;;;;5033119;28;20381;-61
2022/01/23 14:11:45;;;;;;;1.27;0.82;;;;;;;;;;5030529;28;20017;-59
2022/01/23 14:14:25;;;;;;;1.00;0.70;;;;;;;;;;5033326;28;20033;-61
2022/01/23 14:16:52;;;;;;;0.50;0.50;;;;;;;;;;5020399;28;20182;-61
2022/01/23 14:19:20;;;;;;;2.03;1.23;;;;;;;;;;5031662;28;20033;-61
2022/01/23 14:21:50;;;;;;;1.20;0.80;;;;;;;;;;5032312;28;20021;-61
2022/01/23 14:24:25;;;;;;;0.70;0.63;;;;;;;;;;5025436;28;20068;-61
2022/01/23 14:27:08;;;;;;;1.52;0.75;;;;;;;;;;5027414;28;20025;-61
2022/01/23 14:29:46;;;;;;;0.98;0.70;;;;;;;;;;5038770;28;20035;-61
2022/01/23 14:32:19;;;;;;;1.17;0.60;;;;;;;;;;5023872;28;20418;-61
2022/01/23 14:34:46;;;;;;;2.72;1.00;;;;;;;;;;5032263;28;20554;-61
2022/01/23 14:37:12;;;;;;;2.17;0.65;;;;;;;;;;5028438;28;20033;-61
2022/01/23 14:39:38;;;;;;;1.92;1.00;;;;;;;;;;5029937;28;20028;-61
2022/01/23 14:42:15;;;;;;;0.68;0.60;;;;;;;;;;5027002;28;20034;-61
2022/01/23 14:44:42;;;;;;;2.25;0.90;;;;;;;;;;5020265;28;20021;-61
2022/01/23 14:47:09;;;;;;;2.95;0.88;;;;;;;;;;5032441;28;20029;-61
2022/01/23 14:49:37;;;;;;;1.52;0.93;;;;;;;;;;5032225;28;20347;-61
2022/01/23 14:52:04;;;;;;;1.50;0.85;;;;;;;;;;5032099;28;20021;-61
2022/01/23 14:54:32;;;;;;;1.40;0.80;;;;;;;;;;5025772;28;20030;-61
2022/01/23 14:57:01;;;;;;;1.52;0.90;;;;;;;;;;5029800;28;20040;-61
2022/01/23 14:59:29;;;;;;;1.75;1.10;;;;;;;;;;5030284;28;20052;-61
2022/01/23 15:01:56;;;;;;;1.25;0.95;;;;;;;;;;5028031;28;20025;-61
2022/01/23 15:04:23;;;;;;;1.38;0.88;;;;;;;;;;5024846;28;20034;-61
2022/01/23 15:06:49;;;;;;;1.45;1.00;;;;;;;;;;5031594;28;20032;-61
2022/01/23 15:09:17;;;;;;;2.30;1.23;;;;;;;;;;5031813;28;20529;-61
2022/01/23 15:11:43;;;;;;;1.13;0.80;;;;;;;;;;5029086;28;20026;-61
2022/01/23 15:14:10;;;;;;;7.28;1.17;;;;;;;;;;5031298;28;20026;-61
2022/01/23 15:16:37;;;;;;;1.77;1.00;;;;;;;;;;5027027;28;20026;-61
2022/01/23 15:19:03;;;;;;;2.58;1.20;;;;;;;;;;5031352;28;20029;-61
2022/01/23 15:21:29;;;;;;;1.60;1.00;;;;;;;;;;5031109;28;20340;-61
2022/01/23 15:23:56;;;;;;;2.10;0.98;;;;;;;;;;5026382;28;20084;-61
2022/01/23 15:26:22;;;;;;;1.25;0.95;;;;;;;;;;5027858;28;20044;-61
2022/01/23 15:28:49;;;;;;;1.60;1.13;;;;;;;;;;5029720;28;20109;-61
2022/01/23 15:31:15;;;;;;;1.13;0.95;;;;;;;;;;5020279;28;20030;-61
2022/01/23 15:33:41;;;;;;;1.65;1.10;;;;;;;;;;5029252;28;20044;-63
2022/01/23 15:36:07;;;;;;;2.10;1.00;;;;;;;;;;5029570;28;20053;-62
2022/01/23 15:38:36;;;;;;;0.95;0.80;;;;;;;;;;5031170;28;20357;-62
2022/01/23 15:41:02;;;;;;;2.03;1.10;;;;;;;;;;5031606;28;20113;-62
2022/01/23 15:43:28;;;;;;;2.70;0.77;;;;;;;;;;5025571;28;20100;-62
2022/01/23 15:45:54;;;;;;;3.42;1.00;;;;;;;;;;5031993;28;20029;-62
2022/01/23 15:48:20;;;;;;;2.65;1.23;;;;;;;;;;5023279;28;20466;-62
2022/01/23 15:50:46;;;;;;;1.70;1.08;;;;;;;;;;5022455;28;20034;-62
2022/01/23 15:53:12;;;;;;;1.55;1.02;;;;;;;;;;5027184;28;20444;-62
2022/01/23 15:55:38;;;;;;;1.58;1.10;;;;;;;;;;5033103;28;20026;-61
2022/01/23 15:58:04;;;;;;;1.15;0.82;;;;;;;;;;5025860;28;20053;-62
2022/01/23 16:00:32;;;;;;;1.10;0.77;;;;;;;;;;5030667;28;20023;-62
2022/01/23 16:02:58;;;;;;;1.77;1.10;;;;;;;;;;5028443;28;20025;-62
2022/01/23 16:05:24;;;;;;;1.55;1.08;;;;;;;;;;5033870;28;20026;-62
2022/01/23 16:07:52;;;;;;;1.13;0.90;;;;;;;;;;5027132;28;20594;-62
2022/01/23 16:10:18;;;;;;;1.52;1.30;;;;;;;;;;5032395;28;20064;-62
2022/01/23 16:12:44;;;;;;;2.35;1.40;;;;;;;;;;5029215;28;20683;-62
2022/01/23 16:15:11;;;;;;;1.63;1.13;;;;;;;;;;5016632;28;20030;-62
2022/01/23 16:17:37;;;;;;;3.60;1.17;;;;;;;;;;5031673;28;20029;-62
2022/01/23 16:20:04;;;;;;;2.40;1.13;;;;;;;;;;5026197;28;20021;-62
2022/01/23 16:22:30;;;;;;;3.38;1.10;;;;;;;;;;5033837;28;20513;-62
2022/01/23 16:24:56;;;;;;;1.17;1.00;;;;;;;;;;5031535;28;20037;-62
2022/01/23 16:27:22;;;;;;;3.10;1.60;;;;;;;;;;5033273;28;20144;-62
2022/01/23 16:29:49;;;;;;;1.88;1.13;;;;;;;;;;5026227;28;20067;-62
2022/01/23 16:32:14;;;;;;;2.22;1.20;;;;;;;;;;5022517;28;20522;-61
2022/01/23 16:34:41;;;;;;;2.40;1.50;;;;;;;;;;5026001;28;20072;-62
2022/01/23 16:37:06;;;;;;;1.33;0.90;;;;;;;;;;5024864;28;20046;-61
2022/01/23 16:39:33;;;;;;;3.88;1.60;;;;;;;;;;5027936;28;20021;-61
2022/01/23 16:41:58;;;;;;;1.88;1.30;;;;;;;;;;5031904;28;20040;-61
2022/01/23 16:44:25;;;;;;;3.15;1.30;;;;;;;;;;5024702;28;20037;-61
2022/01/23 16:46:52;;;;;;;1.52;1.13;;;;;;;;;;5026917;28;20390;-61
2022/01/23 16:49:18;;;;;;;1.02;0.93;;;;;;;;;;5031330;28;20053;-61
2022/01/23 16:51:44;;;;;;;2.50;1.40;;;;;;;;;;5034064;28;20078;-61
2022/01/23 16:54:11;;;;;;;1.92;1.33;;;;;;;;;;5028493;28;20350;-62
2022/01/23 16:56:38;;;;;;;2.15;1.27;;;;;;;;;;5018771;28;20477;-61
2022/01/23 16:59:05;;;;;;;2.38;1.30;;;;;;;;;;5022457;28;20107;-62
2022/01/23 17:01:31;;;;;;;2.13;1.30;;;;;;;;;;5025094;28;20030;-61
2022/01/23 17:03:57;;;;;;;1.88;1.25;;;;;;;;;;5029056;28;20025;-62
2022/01/23 17:06:24;;;;;;;1.63;1.20;;;;;;;;;;5028487;28;20033;-61
2022/01/23 17:08:50;;;;;;;1.95;1.50;;;;;;;;;;5025982;28;20041;-61
2022/01/23 17:11:17;;;;;;;1.92;1.38;;;;;;;;;;5030757;28;20064;-62
2022/01/23 17:13:44;;;;;;;2.72;1.55;;;;;;;;;;5035555;28;20037;-61
2022/01/23 17:16:13;;;;;;;1.70;1.40;;;;;;;;;;5023329;28;20080;-62
2022/01/23 17:18:39;;;;;;;1.73;1.30;;;;;;;;;;5025696;28;20033;-62
2022/01/23 17:21:06;;;;;;;2.25;1.35;;;;;;;;;;5031098;28;20030;-62
2022/01/23 17:23:32;;;;;;;1.65;1.23;;;;;;;;;;5026102;28;20063;-61
2022/01/23 17:25:58;;;;;;;1.60;1.13;;;;;;;;;;5020253;28;20145;-60
2022/01/23 17:28:24;;;;;;;1.65;1.30;;;;;;;;;;5022604;28;20140;-61
2022/01/23 17:30:50;;;;;;;1.77;1.30;;;;;;;;;;5027141;28;20520;-61
2022/01/23 17:33:16;;;;;;;3.47;1.42;;;;;;;;;;5022179;28;20029;-61
2022/01/23 17:35:42;;;;;;;2.05;1.30;;;;;;;;;;5026506;28;20171;-62
2022/01/23 17:38:09;;;;;;;1.10;1.00;;;;;;;;;;5022104;28;20465;-61
2022/01/23 17:40:35;;;;;;;1.75;1.20;;;;;;;;;;5031747;28;20053;-62
2022/01/23 17:43:01;;;;;;;5.20;1.30;;;;;;;;;;5032833;28;20053;-62
2022/01/23 17:45:33;;;;;;;1.35;1.10;;;;;;;;;;5018879;28;20041;-61
2022/01/23 17:48:29;;;;;;;1.63;1.23;;;;;;;;;;5029424;28;20069;-61
2022/01/23 17:50:55;;;;;;;1.80;1.23;;;;;;;;;;5021132;28;20116;-61
2022/01/23 17:53:21;;;;;;;2.47;1.23;;;;;;;;;;5031051;28;20087;-61
2022/01/23 17:55:47;;;;;;;1.10;0.90;;;;;;;;;;5027394;28;20654;-61
2022/01/23 17:58:13;;;;;;;2.35;1.00;;;;;;;;;;5033327;28;20420;-61